Time;durP1;ratioP1;P1;durP2;ratioP2;P2;SDS_P1;SDS_P2;PMS_P1;PMS_P2;Temp;Humidity;BMP_temperature;BMP_pressure;BME280_temperature;BME280_humidity;BME280_pressure;Samples;Min_cycle;Max_cycle;Signal;HPM_P1;HPM_P2
2022/10/11 00:01:20;;;;;;;20.87;10.90;;;;;;;-141.28;100.00;49001.66;5093496;28;20207;-77
2022/10/11 00:03:47;;;;;;;24.33;10.87;;;;;;;-141.28;100.00;49031.09;5095824;28;20736;-78
2022/10/11 00:06:13;;;;;;;21.97;10.47;;;;;;;-141.28;100.00;49038.94;5116323;28;20199;-76
2022/10/11 00:08:40;;;;;;;18.73;10.40;;;;;;;-141.28;100.00;49038.94;5083756;28;20224;-77
2022/10/11 00:11:10;;;;;;;19.33;10.80;;;;;;;-141.28;100.00;49058.56;5075891;28;20239;-77
2022/10/11 00:13:37;;;;;;;20.43;10.83;;;;;;;-141.28;100.00;49054.66;5075710;28;20641;-77
2022/10/11 00:16:07;;;;;;;18.30;11.17;;;;;;;-141.28;100.00;49046.78;5083795;28;20204;-76
2022/10/11 00:18:34;;;;;;;14.93;10.77;;;;;;;-141.28;100.00;49058.56;5081006;28;20208;-76
2022/10/11 00:21:03;;;;;;;15.50;10.73;;;;;;;-141.28;100.00;49056.59;5081852;28;20746;-77
2022/10/11 00:23:30;;;;;;;17.97;10.77;;;;;;;-141.28;100.00;49035.03;5078355;28;20688;-77
2022/10/11 00:25:59;;;;;;;19.77;11.00;;;;;;;-141.28;100.00;49015.41;5093431;28;20204;-76
2022/10/11 00:28:27;;;;;;;15.80;10.73;;;;;;;-141.28;100.00;49042.88;5092892;28;20641;-77
2022/10/11 00:30:57;;;;;;;15.23;10.93;;;;;;;-141.28;100.00;49044.84;5092315;28;20227;-77
2022/10/11 00:33:25;;;;;;;18.77;11.23;;;;;;;-141.28;100.00;49036.97;5092926;28;20199;-77
2022/10/11 00:35:52;;;;;;;17.47;11.67;;;;;;;-141.28;100.00;49035.03;5085181;28;20265;-78
2022/10/11 00:38:19;;;;;;;16.53;11.73;;;;;;;-141.28;100.00;49009.50;5078936;28;20196;-76
2022/10/11 00:40:46;;;;;;;13.77;11.23;;;;;;;-141.28;100.00;49003.63;5093038;28;20239;-76
2022/10/11 00:43:17;;;;;;;21.37;13.37;;;;;;;-141.28;100.00;48958.50;5093133;28;20655;-76
2022/10/11 00:46:02;;;;;;;30.07;14.13;;;;;;;-141.28;100.00;49031.09;5095610;28;20292;-77
2022/10/11 00:48:37;;;;;;;21.07;12.60;;;;;;;-141.28;100.00;48987.94;5094773;28;20196;-75
2022/10/11 00:51:08;;;;;;;23.70;13.47;;;;;;;-141.28;100.00;48987.94;5091635;28;20219;-76
2022/10/11 00:53:35;;;;;;;26.73;15.00;;;;;;;-141.28;100.00;48972.25;5080783;28;20211;-76
2022/10/11 00:56:06;;;;;;;25.77;15.40;;;;;;;-141.28;100.00;48940.84;5092289;28;20682;-76
2022/10/11 00:58:36;;;;;;;28.30;12.97;;;;;;;-141.28;100.00;48944.78;5092446;28;20243;-77
2022/10/11 01:01:05;;;;;;;24.40;12.53;;;;;;;-141.28;100.00;48921.22;5091999;28;20286;-76
2022/10/11 01:03:38;;;;;;;23.93;13.40;;;;;;;-141.28;100.00;48907.50;5092011;28;20207;-77
2022/10/11 01:06:10;;;;;;;19.90;13.90;;;;;;;-141.28;100.00;48905.53;5091963;28;20252;-76
2022/10/11 01:08:38;;;;;;;25.13;14.40;;;;;;;-141.28;100.00;48897.69;5091605;28;20238;-79
2022/10/11 01:11:06;;;;;;;20.03;13.63;;;;;;;-141.28;100.00;48889.84;5092376;28;20292;-77
2022/10/11 01:13:46;;;;;;;23.87;14.50;;;;;;;-141.28;100.00;48885.91;5091963;28;20650;-77
2022/10/11 01:16:20;;;;;;;28.23;15.90;;;;;;;-141.28;100.00;48882.00;5091781;28;20674;-77
2022/10/11 01:18:55;;;;;;;23.67;15.37;;;;;;;-141.28;100.00;48864.34;5091792;28;20211;-77
2022/10/11 01:21:36;;;;;;;24.57;15.77;;;;;;;-141.28;100.00;48846.69;5091916;28;20577;-77
2022/10/11 01:24:32;;;;;;;23.90;16.20;;;;;;;-141.28;100.00;48858.44;5079984;28;20204;-78
2022/10/11 01:27:38;;;;;;;24.53;16.07;;;;;;;-141.28;100.00;48905.53;5085867;28;20269;-76
2022/10/11 01:30:26;;;;;;;23.87;14.87;;;;;;;-141.28;100.00;48895.72;5075844;28;20223;-77
2022/10/11 01:33:14;;;;;;;23.20;15.23;;;;;;;-141.28;100.00;48854.53;5092115;28;20211;-76
2022/10/11 01:35:50;;;;;;;30.20;16.07;;;;;;;-141.28;100.00;48842.75;5102086;28;20198;-77
2022/10/11 01:38:23;;;;;;;28.67;16.67;;;;;;;-141.28;100.00;48846.69;5106353;28;20201;-77
2022/10/11 01:40:53;;;;;;;30.90;16.70;;;;;;;-141.28;100.00;48805.47;5092495;28;20334;-78
2022/10/11 01:43:22;;;;;;;30.43;16.60;;;;;;;-141.28;100.00;48850.59;5103752;28;20630;-76
2022/10/11 01:45:58;;;;;;;26.80;17.57;;;;;;;-141.28;100.00;48870.22;5091605;28;20196;-77
2022/10/11 01:48:25;;;;;;;26.80;17.77;;;;;;;-141.28;100.00;48876.09;5091386;28;20685;-77
2022/10/11 01:51:03;;;;;;;44.87;21.03;;;;;;;-141.28;100.00;48830.97;5081037;28;20709;-76
2022/10/11 01:53:59;;;;;;;35.40;17.77;;;;;;;-141.28;100.00;48929.06;5085050;28;20607;-76
2022/10/11 01:56:49;;;;;;;40.93;21.20;;;;;;;-141.28;100.00;48917.31;5105656;28;20203;-76
2022/10/11 01:59:35;;;;;;;29.80;18.07;;;;;;;-141.28;100.00;48889.84;5091467;28;20223;-76
2022/10/11 02:02:21;;;;;;;28.40;17.87;;;;;;;-141.28;100.00;48899.66;5099031;28;20204;-77
2022/10/11 02:04:55;;;;;;;25.70;16.90;;;;;;;-141.28;100.00;48903.56;5086773;28;20207;-76
2022/10/11 02:07:25;;;;;;;29.97;17.23;;;;;;;-141.28;100.00;48903.56;5091790;28;20649;-78
2022/10/11 02:09:59;;;;;;;25.90;17.23;;;;;;;-141.28;100.00;48944.78;5091429;28;20195;-78
2022/10/11 02:12:35;;;;;;;29.03;17.60;;;;;;;-141.28;100.00;48954.59;5091485;28;20207;-76
2022/10/11 02:15:07;;;;;;;25.00;17.53;;;;;;;-141.28;100.00;48952.63;5091109;28;20252;-78
2022/10/11 02:17:44;;;;;;;29.50;17.83;;;;;;;-141.28;100.00;48987.94;5090948;28;20200;-76
2022/10/11 02:20:15;;;;;;;25.33;17.33;;;;;;;-141.28;100.00;48980.09;5091370;28;20203;-77
2022/10/11 02:22:46;;;;;;;26.33;17.50;;;;;;;-141.28;100.00;49015.41;5091756;28;20199;-76
2022/10/11 02:25:23;;;;;;;28.97;16.83;;;;;;;-141.28;100.00;49029.13;5092479;28;20199;-75
2022/10/11 02:27:54;;;;;;;26.27;17.10;;;;;;;-141.28;100.00;49070.34;5093386;28;20211;-77
2022/10/11 02:30:22;;;;;;;30.93;17.60;;;;;;;-141.28;100.00;49082.13;5088169;28;20223;-76
2022/10/11 02:32:52;;;;;;;30.03;16.93;;;;;;;-141.28;100.00;49056.59;5081259;28;20208;-78
2022/10/11 02:35:22;;;;;;;28.03;17.73;;;;;;;-141.28;100.00;49101.72;5072139;28;20196;-78
2022/10/11 02:37:52;;;;;;;21.90;16.27;;;;;;;-141.28;100.00;49131.16;5072310;28;20215;-76
2022/10/11 02:40:24;;;;;;;26.70;17.73;;;;;;;-141.28;100.00;49139.00;5093532;28;20231;-78
2022/10/11 02:42:57;;;;;;;27.00;17.43;;;;;;;-141.28;100.00;49166.47;5094416;28;20584;-78
2022/10/11 02:45:30;;;;;;;26.83;16.70;;;;;;;-141.28;100.00;49156.66;5095031;28;20208;-77
2022/10/11 02:47:58;;;;;;;28.53;17.57;;;;;;;-141.28;100.00;49158.63;5102064;28;20252;-77
2022/10/11 02:50:27;;;;;;;31.17;17.53;;;;;;;-141.28;100.00;49164.53;5113484;28;20283;-77
2022/10/11 02:52:54;;;;;;;25.60;17.93;;;;;;;-141.28;100.00;49160.59;5095213;28;20280;-77
2022/10/11 02:55:22;;;;;;;25.43;18.37;;;;;;;-141.28;100.00;49148.81;5094291;28;20570;-77
2022/10/11 02:57:49;;;;;;;27.10;18.83;;;;;;;-141.28;100.00;49188.06;5094776;28;20211;-77
2022/10/11 03:00:16;;;;;;;29.73;19.43;;;;;;;-141.28;100.00;49192.00;5094138;28;20756;-77
2022/10/11 03:02:43;;;;;;;32.33;19.53;;;;;;;-141.28;100.00;49205.72;5094791;28;20246;-77
2022/10/11 03:05:11;;;;;;;30.90;19.57;;;;;;;-141.28;100.00;49207.69;5095148;28;20211;-78
2022/10/11 03:07:39;;;;;;;29.07;18.53;;;;;;;-141.28;100.00;49231.22;5094831;28;20212;-76
2022/10/11 03:10:07;;;;;;;31.30;18.03;;;;;;;-141.28;100.00;49219.47;5094598;28;20203;-77
2022/10/11 03:12:34;;;;;;;30.80;18.97;;;;;;;-141.28;100.00;49248.88;5094553;28;20685;-77
2022/10/11 03:15:01;;;;;;;29.27;19.03;;;;;;;-141.28;100.00;49243.00;5096902;28;20199;-77
2022/10/11 03:17:28;;;;;;;28.37;18.37;;;;;;;-141.28;100.00;49221.41;5102566;28;20245;-77
2022/10/11 03:19:56;;;;;;;28.60;18.77;;;;;;;-141.28;100.00;49241.03;5094366;28;20208;-77
2022/10/11 03:22:24;;;;;;;32.20;20.27;;;;;;;-141.28;100.00;49211.59;5093941;28;20200;-77
2022/10/11 03:24:51;;;;;;;35.03;19.83;;;;;;;-141.28;100.00;49231.22;5108015;28;20199;-77
2022/10/11 03:27:18;;;;;;;27.67;18.87;;;;;;;-141.28;100.00;49215.53;5111969;28;20206;-77
2022/10/11 03:29:45;;;;;;;28.23;18.57;;;;;;;-141.28;100.00;49227.31;5094171;28;20206;-77
2022/10/11 03:32:12;;;;;;;31.13;19.87;;;;;;;-141.28;100.00;49219.47;5097670;28;20234;-76
2022/10/11 03:34:39;;;;;;;31.83;19.27;;;;;;;-141.28;100.00;49215.53;5114459;28;20287;-77
2022/10/11 03:37:08;;;;;;;31.40;19.13;;;;;;;-141.28;100.00;49203.75;5073967;28;20586;-77
2022/10/11 03:39:37;;;;;;;30.87;18.90;;;;;;;-141.28;100.00;49203.75;5086618;28;20231;-76
2022/10/11 03:42:06;;;;;;;39.07;20.90;;;;;;;-141.28;100.00;49201.81;5081251;28;20594;-76
2022/10/11 03:44:32;;;;;;;31.90;20.80;;;;;;;-141.28;100.00;49209.66;5092631;28;20199;-76
2022/10/11 03:47:00;;;;;;;31.10;20.00;;;;;;;-141.28;100.00;49207.69;5080876;28;20212;-77
2022/10/11 03:49:27;;;;;;;40.80;27.50;;;;;;;-141.28;100.00;49207.69;5076806;28;20207;-77
2022/10/11 03:51:54;;;;;;;44.63;31.33;;;;;;;-141.28;100.00;49254.78;5096555;28;20234;-77
2022/10/11 03:54:21;;;;;;;37.47;23.83;;;;;;;-141.28;100.00;49248.88;5096785;28;20224;-77
2022/10/11 03:56:49;;;;;;;31.70;19.60;;;;;;;-141.28;100.00;49266.56;5100736;28;20203;-76
2022/10/11 03:59:17;;;;;;;34.03;19.97;;;;;;;-141.28;100.00;49274.41;5082401;28;20223;-76
2022/10/11 04:01:45;;;;;;;37.03;23.13;;;;;;;-141.28;100.00;49246.94;5094578;28;20218;-78
2022/10/11 04:04:12;;;;;;;64.47;46.43;;;;;;;-141.28;100.00;49329.34;5093356;28;20208;-77
2022/10/11 04:06:40;;;;;;;52.27;32.23;;;;;;;-141.28;100.00;49380.34;5093524;28;20200;-76
2022/10/11 04:09:07;;;;;;;44.70;27.13;;;;;;;-141.28;100.00;49411.75;5093828;28;20200;-77
2022/10/11 04:11:34;;;;;;;39.43;21.83;;;;;;;-141.28;100.00;49437.25;5093089;28;20231;-77
2022/10/11 04:14:02;;;;;;;29.80;19.93;;;;;;;-141.28;100.00;49451.00;5083604;28;20295;-77
2022/10/11 04:16:30;;;;;;;36.90;20.27;;;;;;;-141.28;100.00;49488.28;5100116;28;20693;-77
2022/10/11 04:18:57;;;;;;;39.33;20.47;;;;;;;-141.28;100.00;49492.22;5073215;28;20257;-77
2022/10/11 04:21:24;;;;;;;34.17;20.33;;;;;;;-141.28;100.00;49509.88;5089027;28;20207;-77
2022/10/11 04:23:51;;;;;;;42.90;21.43;;;;;;;-141.28;100.00;49521.63;5093302;28;20569;-77
2022/10/11 04:26:18;;;;;;;49.77;21.37;;;;;;;-141.28;100.00;49531.44;5093162;28;20273;-77
2022/10/11 04:28:45;;;;;;;45.80;22.53;;;;;;;-141.28;100.00;49537.34;5091555;28;20783;-75
2022/10/11 04:31:15;;;;;;;40.57;22.50;;;;;;;-141.28;100.00;49556.97;5092270;28;20626;-78
2022/10/11 04:36:31;;;;;;;36.00;21.57;;;;;;;-141.28;100.00;49543.22;5092139;28;20660;-76
2022/10/11 04:39:00;;;;;;;34.87;20.60;;;;;;;-141.28;100.00;49527.53;5105940;28;20681;-77
2022/10/11 04:41:27;;;;;;;42.23;20.50;;;;;;;-141.28;100.00;49527.53;5101653;28;20286;-77
2022/10/11 04:43:54;;;;;;;53.60;31.67;;;;;;;-141.28;100.00;49560.88;5097650;28;20299;-76
2022/10/11 04:46:23;;;;;;;39.93;23.30;;;;;;;-141.28;100.00;49466.69;5092670;28;20199;-78
2022/10/11 04:48:51;;;;;;;38.37;20.43;;;;;;;-141.28;100.00;49586.41;5079727;28;20220;-77
2022/10/11 04:51:21;;;;;;;46.23;21.83;;;;;;;-141.28;100.00;49525.56;5094763;28;20578;-76
2022/10/11 04:53:48;;;;;;;44.37;20.00;;;;;;;-141.28;100.00;49606.03;5093219;28;20634;-78
2022/10/11 04:56:17;;;;;;;39.90;23.30;;;;;;;-141.28;100.00;49572.66;5092516;28;20206;-75
2022/10/11 04:58:48;;;;;;;39.80;22.20;;;;;;;-141.28;100.00;49615.84;5090044;28;20269;-76
2022/10/11 05:01:15;;;;;;;39.23;21.43;;;;;;;-141.28;100.00;49627.59;5072440;28;20302;-77
2022/10/11 05:03:44;;;;;;;39.03;20.57;;;;;;;-141.28;100.00;49619.75;5075592;28;20197;-77
2022/10/11 05:06:11;;;;;;;38.10;20.30;;;;;;;-141.28;100.00;49635.47;5083308;28;20195;-76
2022/10/11 05:08:38;;;;;;;34.03;19.93;;;;;;;-141.28;100.00;49647.22;5092646;28;20237;-77
2022/10/11 05:11:07;;;;;;;39.90;20.93;;;;;;;-141.28;100.00;49680.59;5103365;28;20230;-76
2022/10/11 05:13:35;;;;;;;41.47;20.87;;;;;;;-141.28;100.00;49662.94;5081405;28;20654;-78
2022/10/11 05:16:03;;;;;;;46.37;20.63;;;;;;;-141.28;100.00;49576.59;5091914;28;20207;-77
2022/10/11 05:18:31;;;;;;;34.87;19.13;;;;;;;-141.28;100.00;49672.75;5092412;28;20204;-76
2022/10/11 05:21:01;;;;;;;39.33;21.20;;;;;;;-141.28;100.00;49584.44;5091943;28;20253;-78
2022/10/11 05:23:31;;;;;;;44.63;22.43;;;;;;;-141.28;100.00;49706.09;5091668;28;20207;-77
2022/10/11 05:25:58;;;;;;;46.07;22.00;;;;;;;-141.28;100.00;49627.59;5092076;28;20200;-78
2022/10/11 05:28:25;;;;;;;40.33;19.83;;;;;;;-141.28;100.00;49700.22;5091976;28;20215;-77
2022/10/11 05:30:53;;;;;;;40.87;19.90;;;;;;;-141.28;100.00;49715.91;5091702;28;20256;-78
2022/10/11 05:33:21;;;;;;;49.33;22.67;;;;;;;-141.28;100.00;49678.63;5090435;28;20204;-76
2022/10/11 05:35:47;;;;;;;39.90;20.90;;;;;;;-141.28;100.00;49702.19;5073426;28;20269;-77
2022/10/11 05:38:16;;;;;;;45.43;21.27;;;;;;;-141.28;100.00;49741.44;5084071;28;20229;-79
2022/10/11 05:40:43;;;;;;;45.03;22.10;;;;;;;-141.28;100.00;49761.06;5091669;28;20284;-78
2022/10/11 05:43:13;;;;;;;43.37;22.93;;;;;;;-141.28;100.00;49725.72;5090877;28;20200;-80
2022/10/11 05:45:44;;;;;;;49.70;23.67;;;;;;;-141.28;100.00;49723.75;5089754;28;20203;-77
2022/10/11 05:48:12;;;;;;;42.83;23.47;;;;;;;-141.28;100.00;49725.72;5081119;28;20207;-75
2022/10/11 05:50:39;;;;;;;39.33;20.40;;;;;;;-141.28;100.00;49727.69;5091262;28;20207;-76
2022/10/11 05:53:07;;;;;;;37.00;20.13;;;;;;;-141.28;100.00;49751.25;5091290;28;20705;-76
2022/10/11 05:55:38;;;;;;;47.10;20.60;;;;;;;-141.28;100.00;49753.19;5091422;28;20229;-77
2022/10/11 05:58:06;;;;;;;34.80;17.90;;;;;;;-141.28;100.00;49749.28;5094280;28;20635;-77
2022/10/11 06:00:35;;;;;;;37.47;20.23;;;;;;;-141.28;100.00;49741.44;5089239;28;20223;-77
2022/10/11 06:03:02;;;;;;;45.23;21.77;;;;;;;-141.28;100.00;49694.31;5091973;28;20221;-77
2022/10/11 06:05:29;;;;;;;41.10;19.90;;;;;;;-141.28;100.00;49784.59;5074747;28;20262;-77
2022/10/11 06:07:57;;;;;;;34.20;18.70;;;;;;;-141.28;100.00;49798.34;5083768;28;20282;-76
2022/10/11 06:10:25;;;;;;;36.97;19.67;;;;;;;-141.28;100.00;49825.81;5091209;28;20659;-76
2022/10/11 06:12:54;;;;;;;31.10;18.07;;;;;;;-141.28;100.00;49806.19;5092550;28;20277;-77
2022/10/11 06:15:20;;;;;;;52.20;21.03;;;;;;;-141.28;100.00;49792.44;5095978;28;20662;-76
2022/10/11 06:17:47;;;;;;;49.80;21.40;;;;;;;-141.28;100.00;49768.91;5096012;28;20228;-76
2022/10/11 06:20:14;;;;;;;44.43;19.30;;;;;;;-141.28;100.00;49743.38;5095384;28;20202;-76
2022/10/11 06:22:41;;;;;;;41.80;19.37;;;;;;;-141.28;100.00;49737.50;5095868;28;20208;-76
2022/10/11 06:25:09;;;;;;;37.73;19.73;;;;;;;-141.28;100.00;49713.94;5082890;28;20213;-76
2022/10/11 06:27:36;;;;;;;33.57;18.47;;;;;;;-141.28;100.00;49678.63;5095069;28;20282;-75
2022/10/11 06:30:06;;;;;;;38.63;19.47;;;;;;;-141.28;100.00;49611.91;5095255;28;20203;-76
2022/10/11 06:32:33;;;;;;;39.23;18.10;;;;;;;-141.28;100.00;49712.00;5093661;28;20732;-76
2022/10/11 06:35:02;;;;;;;37.43;18.00;;;;;;;-141.28;100.00;49717.88;5095211;28;20207;-77
2022/10/11 06:37:29;;;;;;;32.87;17.33;;;;;;;-141.28;100.00;49704.13;5095282;28;20192;-76
2022/10/11 06:39:56;;;;;;;40.03;18.07;;;;;;;-141.28;100.00;49702.19;5095207;28;20227;-78
2022/10/11 06:42:23;;;;;;;38.87;18.77;;;;;;;-141.28;100.00;49710.03;5093853;28;20203;-77
2022/10/11 06:44:51;;;;;;;35.27;19.47;;;;;;;-141.28;100.00;49713.94;5095417;28;20305;-76
2022/10/11 06:47:19;;;;;;;44.47;20.67;;;;;;;-141.28;100.00;49678.63;5081597;28;20204;-77
2022/10/11 06:49:46;;;;;;;36.30;16.87;;;;;;;-141.28;100.00;49651.16;5094822;28;20203;-77
2022/10/11 06:52:14;;;;;;;35.77;17.20;;;;;;;-141.28;100.00;49729.66;5094917;28;20347;-76
2022/10/11 06:54:41;;;;;;;47.50;18.17;;;;;;;-141.28;100.00;49763.00;5094445;28;20207;-76
2022/10/11 06:57:08;;;;;;;31.90;16.73;;;;;;;-141.28;100.00;49733.56;5094910;28;20200;-75
2022/10/11 06:59:35;;;;;;;34.73;15.37;;;;;;;-141.28;100.00;49733.56;5080194;28;20714;-77
2022/10/11 07:02:02;;;;;;;33.57;16.20;;;;;;;-141.28;100.00;49839.56;5093216;28;20302;-76
2022/10/11 07:04:33;;;;;;;32.17;16.07;;;;;;;-141.28;100.00;49859.19;5094547;28;20286;-77
2022/10/11 07:07:00;;;;;;;39.90;18.27;;;;;;;-141.28;100.00;49865.06;5107116;28;20196;-76
2022/10/11 07:09:27;;;;;;;28.03;14.87;;;;;;;-141.28;100.00;49849.38;5094209;28;20214;-75
2022/10/11 07:11:54;;;;;;;31.07;14.93;;;;;;;-141.28;100.00;49849.38;5094482;28;20235;-76
2022/10/11 07:14:21;;;;;;;25.50;14.73;;;;;;;-141.28;100.00;49819.94;5093981;28;20660;-77
2022/10/11 07:16:48;;;;;;;33.63;16.17;;;;;;;-141.28;100.00;49788.53;5098452;28;20206;-78
2022/10/11 07:19:15;;;;;;;27.50;14.80;;;;;;;-141.28;100.00;49843.47;5113969;28;20195;-76
2022/10/11 07:21:44;;;;;;;28.53;15.17;;;;;;;-141.28;100.00;49831.69;5085722;28;20234;-77
2022/10/11 07:24:11;;;;;;;35.03;16.63;;;;;;;-141.28;100.00;49831.69;5091418;28;20631;-77
2022/10/11 07:26:38;;;;;;;32.17;16.50;;;;;;;-141.28;100.00;49819.94;5091867;28;20269;-77
2022/10/11 07:29:05;;;;;;;29.87;16.33;;;;;;;-141.28;100.00;49825.81;5094136;28;20208;-77
2022/10/11 07:31:33;;;;;;;27.77;14.20;;;;;;;-141.28;100.00;49816.00;5092307;28;20207;-76
2022/10/11 07:33:59;;;;;;;28.57;15.23;;;;;;;-141.28;100.00;49745.34;5093601;28;20641;-77
2022/10/11 07:36:26;;;;;;;34.20;16.13;;;;;;;-141.28;100.00;49808.16;5093996;28;20199;-76
2022/10/11 07:38:56;;;;;;;29.93;15.10;;;;;;;-141.28;100.00;49804.22;5104450;28;20213;-77
2022/10/11 07:41:23;;;;;;;27.80;15.67;;;;;;;-141.28;100.00;49812.06;5094083;28;20204;-77
2022/10/11 07:43:50;;;;;;;31.13;16.07;;;;;;;-141.28;100.00;49823.84;5093163;28;20611;-76
2022/10/11 07:46:19;;;;;;;32.93;16.03;;;;;;;-141.28;100.00;49843.47;5104290;28;20282;-76
2022/10/11 07:48:48;;;;;;;34.77;15.60;;;;;;;-141.28;100.00;49839.56;5120387;28;20214;-77
2022/10/11 07:51:18;;;;;;;36.00;16.43;;;;;;;-141.28;100.00;49855.25;5095315;28;20521;-77
2022/10/11 07:53:46;;;;;;;31.90;15.93;;;;;;;-141.28;100.00;49827.78;5093617;28;20734;-76
2022/10/11 07:56:18;;;;;;;29.47;16.87;;;;;;;-141.28;100.00;49790.50;5094240;28;20214;-77
2022/10/11 07:58:49;;;;;;;30.43;14.50;;;;;;;-141.28;100.00;49710.03;5093569;28;20638;-76
2022/10/11 08:01:16;;;;;;;30.20;16.93;;;;;;;-141.28;100.00;49686.47;5094585;28;20210;-76
2022/10/11 08:03:43;;;;;;;32.00;14.83;;;;;;;-141.28;100.00;49627.59;5098877;28;20206;-75
2022/10/11 08:06:13;;;;;;;28.87;15.37;;;;;;;-141.28;100.00;49615.84;5103109;28;20660;-77
2022/10/11 08:08:41;;;;;;;28.40;15.23;;;;;;;-141.28;100.00;49564.81;5096694;28;20198;-78
2022/10/11 08:11:07;;;;;;;26.97;15.07;;;;;;;-141.28;100.00;49560.88;5100846;28;20231;-76
2022/10/11 08:13:36;;;;;;;37.80;17.07;;;;;;;-141.28;100.00;49541.25;5087663;28;20312;-77
2022/10/11 08:16:10;;;;;;;33.17;18.07;;;;;;;-141.28;100.00;49547.16;5086820;28;20210;-76
2022/10/11 08:18:38;;;;;;;28.83;15.27;;;;;;;-141.28;100.00;49537.34;5080907;28;20234;-76
2022/10/11 08:21:07;;;;;;;30.83;14.60;;;;;;;-141.28;100.00;49560.88;5079428;28;20232;-77
2022/10/11 08:23:34;;;;;;;32.70;15.83;;;;;;;-141.28;100.00;49470.63;5074379;28;20200;-77
2022/10/11 08:26:01;;;;;;;32.90;12.93;;;;;;;-141.28;100.00;49553.03;5075797;28;20693;-78
2022/10/11 08:28:28;;;;;;;26.17;14.40;;;;;;;-141.28;100.00;49553.03;5083419;28;20213;-76
2022/10/11 08:30:59;;;;;;;25.67;14.60;;;;;;;-141.28;100.00;49572.66;5081864;28;20215;-77
2022/10/11 08:33:28;;;;;;;30.70;14.83;;;;;;;-141.28;100.00;49517.72;5093313;28;20296;-75
2022/10/11 08:35:57;;;;;;;25.70;13.13;;;;;;;-141.28;100.00;49576.59;5092565;28;20662;-77
2022/10/11 08:38:24;;;;;;;22.77;14.93;;;;;;;-141.28;100.00;49584.44;5092154;28;20215;-77
2022/10/11 08:40:54;;;;;;;29.00;15.17;;;;;;;-141.28;100.00;49592.28;5092802;28;20227;-76
2022/10/11 08:43:38;;;;;;;26.50;15.17;;;;;;;-141.28;100.00;49664.91;5090363;28;20221;-77
2022/10/11 08:46:11;;;;;;;28.40;15.90;;;;;;;-141.28;100.00;49655.09;5098376;28;20199;-78
2022/10/11 08:48:43;;;;;;;21.40;12.13;;;;;;;-141.28;100.00;49619.75;5112457;28;20334;-76
2022/10/11 08:51:19;;;;;;;28.40;14.77;;;;;;;-141.28;100.00;49606.03;5113091;28;20199;-77
2022/10/11 08:53:51;;;;;;;23.90;13.23;;;;;;;-141.28;100.00;49590.31;5088646;28;20255;-77
2022/10/11 08:56:22;;;;;;;22.33;14.40;;;;;;;-141.28;100.00;49553.03;5099542;28;20199;-77
2022/10/11 08:58:57;;;;;;;23.27;13.13;;;;;;;-141.28;100.00;49529.50;5097208;28;20234;-78
2022/10/11 09:01:28;;;;;;;19.77;12.90;;;;;;;-141.28;100.00;49490.25;5092972;28;20203;-76
2022/10/11 09:03:56;;;;;;;22.40;13.50;;;;;;;-141.28;100.00;49509.88;5092999;28;20231;-75
2022/10/11 09:06:40;;;;;;;23.97;13.87;;;;;;;-141.28;100.00;49513.78;5078966;28;20537;-78
2022/10/11 09:09:37;;;;;;;22.97;12.10;;;;;;;-141.28;100.00;49604.06;5082084;28;20206;-78
2022/10/11 09:12:14;;;;;;;18.43;12.80;;;;;;;-141.28;100.00;49690.41;5093092;28;20219;-77
2022/10/11 09:14:58;;;;;;;26.30;12.90;;;;;;;-141.28;100.00;49674.72;5104970;28;20194;-77
2022/10/11 09:17:40;;;;;;;24.40;13.70;;;;;;;-141.28;100.00;49747.31;5102486;28;20264;-77
2022/10/11 09:20:31;;;;;;;21.70;13.03;;;;;;;-141.28;100.00;49733.56;5090104;28;20283;-77
2022/10/11 09:23:03;;;;;;;34.80;13.50;;;;;;;-141.28;100.00;49741.44;5092193;28;20690;-76
2022/10/11 09:25:35;;;;;;;23.47;13.53;;;;;;;-141.28;100.00;49686.47;5091617;28;20252;-77
2022/10/11 09:28:27;;;;;;;22.70;12.73;;;;;;;-141.28;100.00;49655.09;5104583;28;20299;-76
2022/10/11 09:30:56;;;;;;;23.00;13.67;;;;;;;-141.28;100.00;49596.22;5082929;28;20215;-78
2022/10/11 09:33:33;;;;;;;26.63;14.53;;;;;;;-141.28;100.00;49570.69;5114189;28;20613;-76
2022/10/11 09:36:02;;;;;;;21.93;12.90;;;;;;;-141.28;100.00;49531.44;5128415;28;20213;-78
2022/10/11 09:38:40;;;;;;;21.03;11.93;;;;;;;-141.28;100.00;49553.03;5102972;28;20231;-76
2022/10/11 09:41:15;;;;;;;22.27;12.47;;;;;;;-141.28;100.00;49509.88;5103408;28;20211;-79
2022/10/11 09:43:47;;;;;;;21.63;13.53;;;;;;;-141.28;100.00;49515.75;5103241;28;20203;-76
2022/10/11 09:46:22;;;;;;;21.37;12.83;;;;;;;-141.28;100.00;49539.31;5110761;28;20214;-76
2022/10/11 09:48:53;;;;;;;25.90;14.00;;;;;;;-141.28;100.00;49572.66;5094226;28;20206;-76
2022/10/11 09:51:23;;;;;;;25.83;14.97;;;;;;;-141.28;100.00;49580.50;5106769;28;20736;-77
2022/10/11 09:53:56;;;;;;;23.67;13.93;;;;;;;-141.28;100.00;49659.00;5102605;28;20311;-77
2022/10/11 09:56:25;;;;;;;19.70;12.90;;;;;;;-141.28;100.00;49688.44;5083946;28;20721;-76
2022/10/11 09:59:08;;;;;;;18.97;12.70;;;;;;;-141.28;100.00;49808.16;5083925;28;20232;-77
2022/10/11 10:01:36;;;;;;;20.93;13.63;;;;;;;-141.28;100.00;49814.03;5091926;28;20203;-77
2022/10/11 10:04:11;;;;;;;21.13;12.43;;;;;;;-141.28;100.00;49859.19;5118589;28;20214;-76
2022/10/11 10:06:39;;;;;;;23.97;12.70;;;;;;;-141.28;100.00;49908.25;5121529;28;20202;-76
2022/10/11 10:09:26;;;;;;;24.80;13.23;;;;;;;-141.28;100.00;50096.66;5079046;28;20209;-77
2022/10/11 10:11:54;;;;;;;19.57;12.50;;;;;;;-141.28;100.00;50137.88;5105523;28;20382;-77
2022/10/11 10:14:25;;;;;;;20.50;12.67;;;;;;;-141.28;100.00;50110.38;5103709;28;20236;-76
2022/10/11 10:17:01;;;;;;;21.73;11.27;;;;;;;-141.28;100.00;50173.19;5116810;28;20263;-77
2022/10/11 10:19:35;;;;;;;21.93;12.37;;;;;;;-141.28;100.00;50220.28;5119796;28;20285;-77
2022/10/11 10:22:02;;;;;;;24.83;13.13;;;;;;;-141.28;100.00;50206.56;5108604;28;20210;-76
2022/10/11 10:24:37;;;;;;;22.27;13.90;;;;;;;-141.28;100.00;50236.00;5102548;28;20272;-76
2022/10/11 10:27:19;;;;;;;18.93;11.70;;;;;;;-141.28;100.00;50444.06;5101720;28;20255;-77
2022/10/11 10:30:02;;;;;;;19.77;11.43;;;;;;;-141.28;100.00;50526.50;5100470;28;20207;-77
2022/10/11 10:32:36;;;;;;;20.07;11.57;;;;;;;-141.28;100.00;50506.88;5115247;28;20256;-78
2022/10/11 10:35:13;;;;;;;22.17;13.27;;;;;;;-141.28;100.00;50491.16;5121331;28;20278;-76
2022/10/11 10:37:43;;;;;;;22.97;12.40;;;;;;;-141.28;100.00;50550.06;5110123;28;20211;-76
2022/10/11 10:40:16;;;;;;;20.07;13.47;;;;;;;-141.28;100.00;50569.69;5113311;28;20234;-78
2022/10/11 10:42:44;;;;;;;23.87;13.30;;;;;;;-141.28;100.00;50608.94;5100201;28;20203;-77
2022/10/11 10:45:15;;;;;;;22.50;13.57;;;;;;;-141.28;100.00;50663.91;5110542;28;20225;-76
2022/10/11 10:48:04;;;;;;;21.90;13.17;;;;;;;-141.28;100.00;50877.88;5105927;28;20203;-76
2022/10/11 10:50:46;;;;;;;18.23;12.37;;;;;;;-141.28;100.00;51025.09;5113107;28;20211;-77
2022/10/11 10:53:24;;;;;;;22.80;13.00;;;;;;;-141.28;100.00;51115.41;5110248;28;20223;-78
2022/10/11 10:55:58;;;;;;;20.57;12.73;;;;;;;-141.28;100.00;51256.78;5096667;28;20286;-77
2022/10/11 10:58:41;;;;;;;17.90;12.23;;;;;;;-141.28;100.00;51425.63;5093035;28;20264;-76
2022/10/11 11:01:19;;;;;;;20.50;12.47;;;;;;;-141.28;100.00;51625.91;5095803;28;20264;-77
2022/10/11 11:03:53;;;;;;;14.53;11.57;;;;;;;-141.28;100.00;51849.75;5096033;28;20199;-76
2022/10/11 11:06:29;;;;;;;17.10;11.43;;;;;;;-141.28;100.00;51857.59;5096103;28;20202;-76
2022/10/11 11:09:13;;;;;;;16.17;11.87;;;;;;;-141.28;100.00;52004.88;5096865;28;20199;-76
2022/10/11 11:11:55;;;;;;;16.70;11.13;;;;;;;-141.28;100.00;52183.59;5096508;28;20627;-75
2022/10/11 11:14:33;;;;;;;12.93;10.43;;;;;;;-141.28;100.00;52057.91;5095778;28;20227;-77